createdAt,value
2018-05-05T00:00:26.374Z,0
2018-05-05T00:01:26.239Z,0
2018-05-05T00:02:27.088Z,0
2018-05-05T00:03:26.848Z,0
2018-05-05T00:04:26.583Z,0
2018-05-05T00:05:26.746Z,0
2018-05-05T00:06:26.940Z,0
2018-05-05T00:07:26.645Z,0
2018-05-05T00:08:26.957Z,0
2018-05-05T00:09:26.695Z,0
2018-05-05T00:10:26.809Z,0
2018-05-05T00:11:26.736Z,0
2018-05-05T00:12:26.713Z,0
2018-05-05T00:13:27.038Z,0
2018-05-05T00:14:27.043Z,0
2018-05-05T00:15:26.828Z,0
2018-05-05T00:16:27.086Z,0
2018-05-05T00:17:26.820Z,0
2018-05-05T00:18:26.596Z,0
2018-05-05T00:19:27.156Z,0
2018-05-05T00:20:27.221Z,0
2018-05-05T00:21:27.180Z,0
2018-05-05T00:22:26.947Z,0
2018-05-05T00:23:26.696Z,0
2018-05-05T00:24:26.965Z,0
2018-05-05T00:25:26.745Z,0
2018-05-05T00:26:26.725Z,0
2018-05-05T00:27:27.410Z,0
2018-05-05T00:28:26.783Z,0
2018-05-05T00:29:27.070Z,0
2018-05-05T00:30:27.465Z,0
2018-05-05T00:31:27.113Z,0
2018-05-05T00:32:27.439Z,0
2018-05-05T00:33:26.872Z,0
2018-05-05T00:34:27.147Z,0
2018-05-05T00:35:26.921Z,0
2018-05-05T00:36:27.454Z,0
2018-05-05T00:37:27.522Z,0
2018-05-05T00:38:27.514Z,0
2018-05-05T00:39:26.706Z,0
2018-05-05T00:40:27.297Z,0
2018-05-05T00:41:27.291Z,0
2018-05-05T00:42:27.043Z,0
2018-05-05T00:43:27.611Z,0
2018-05-05T00:44:27.366Z,0
2018-05-05T00:45:27.369Z,0
2018-05-05T00:46:27.380Z,0
2018-05-05T00:47:27.683Z,0
2018-05-05T00:48:27.706Z,0
2018-05-05T00:49:27.463Z,0
2018-05-05T00:50:27.731Z,0
2018-05-05T00:51:27.739Z,0
2018-05-05T00:52:27.214Z,0
2018-05-05T00:53:27.539Z,0
2018-05-05T00:54:27.836Z,0
2018-05-05T00:55:26.997Z,0
2018-05-05T00:56:27.589Z,0
2018-05-05T00:57:27.872Z,0
2018-05-05T00:58:27.042Z,0
2018-05-05T00:59:27.318Z,0
2018-05-05T01:00:27.629Z,0
2018-05-05T01:01:27.934Z,0
2018-05-05T01:02:28.207Z,0
2018-05-05T01:03:28.005Z,0
2018-05-05T01:04:27.989Z,0
2018-05-05T01:05:27.932Z,0
2018-05-05T01:06:28.032Z,0
2018-05-05T01:07:28.084Z,0
2018-05-05T01:08:27.797Z,0
2018-05-05T01:09:27.819Z,0
2018-05-05T01:10:28.163Z,0
2018-05-05T01:11:28.114Z,0
2018-05-05T01:12:27.850Z,0
2018-05-05T01:13:28.168Z,0
2018-05-05T01:14:27.635Z,0
2018-05-05T01:15:27.922Z,0
2018-05-05T01:16:27.657Z,0
2018-05-05T01:17:27.940Z,0
2018-05-05T01:18:28.309Z,0
2018-05-05T01:19:27.992Z,0
2018-05-05T01:20:28.342Z,0
2018-05-05T01:21:28.335Z,0
2018-05-05T01:22:28.345Z,0
2018-05-05T01:23:28.058Z,0
2018-05-05T01:24:28.102Z,0
2018-05-05T01:25:27.828Z,0
2018-05-05T01:26:28.418Z,0
2018-05-05T01:27:28.136Z,0
2018-05-05T01:28:27.910Z,0
2018-05-05T01:29:28.483Z,0
2018-05-05T01:30:28.495Z,0
2018-05-05T01:31:27.424Z,0
2018-05-05T01:32:27.702Z,0
2018-05-05T01:33:28.246Z,0
2018-05-05T01:34:28.544Z,0
2018-05-05T01:35:28.602Z,0
2018-05-05T01:36:28.623Z,0
2018-05-05T01:37:27.767Z,0
2018-05-05T01:38:28.619Z,0
2018-05-05T01:39:28.384Z,0
2018-05-05T01:40:28.389Z,0
2018-05-05T01:41:28.738Z,0
2018-05-05T01:42:28.168Z,0
2018-05-05T01:43:28.701Z,0
2018-05-05T01:44:28.855Z,0
2018-05-05T01:45:28.478Z,0
2018-05-05T01:46:28.774Z,0
2018-05-05T01:47:28.789Z,0
2018-05-05T01:48:28.538Z,0
2018-05-05T01:49:28.825Z,0
2018-05-05T01:50:28.304Z,0
2018-05-05T01:51:28.872Z,0
2018-05-05T01:52:28.871Z,0
2018-05-05T01:53:28.311Z,0
2018-05-05T01:54:28.375Z,0
2018-05-05T01:55:28.922Z,0
2018-05-05T01:56:28.937Z,0
2018-05-05T01:57:28.681Z,0
2018-05-05T01:58:28.416Z,0
2018-05-05T01:59:28.726Z,0
2018-05-05T02:00:29.007Z,0
2018-05-05T02:01:28.773Z,0
2018-05-05T02:02:29.073Z,0
2018-05-05T02:03:29.088Z,0
2018-05-05T02:04:28.803Z,0
2018-05-05T02:05:28.830Z,0
2018-05-05T02:06:28.572Z,0
2018-05-05T02:07:28.887Z,0
2018-05-05T02:08:28.922Z,0
2018-05-05T02:09:28.658Z,0
2018-05-05T02:10:29.175Z,0
2018-05-05T02:11:29.211Z,0
2018-05-05T02:12:28.692Z,0
2018-05-05T02:13:28.982Z,0
2018-05-05T02:14:28.719Z,0
2018-05-05T02:15:29.297Z,0
2018-05-05T02:16:28.788Z,0
2018-05-05T02:17:29.081Z,0
2018-05-05T02:18:29.362Z,0
2018-05-05T02:19:29.406Z,0
2018-05-05T02:20:29.232Z,0
2018-05-05T02:21:29.451Z,0
2018-05-05T02:22:29.164Z,0
2018-05-05T02:23:29.439Z,0
2018-05-05T02:24:29.207Z,0
2018-05-05T02:25:29.484Z,0
2018-05-05T02:26:29.260Z,0
2018-05-05T02:27:29.224Z,0
2018-05-05T02:28:28.681Z,0
2018-05-05T02:29:29.000Z,0
2018-05-05T02:30:29.316Z,0
2018-05-05T02:31:29.381Z,0
2018-05-05T02:32:29.587Z,0
2018-05-05T02:33:29.643Z,0
2018-05-05T02:34:29.616Z,0
2018-05-05T02:35:29.382Z,0
2018-05-05T02:36:29.441Z,0
2018-05-05T02:37:29.113Z,0
2018-05-05T02:38:29.132Z,0
2018-05-05T02:39:29.188Z,0
2018-05-05T02:40:29.741Z,0
2018-05-05T02:41:29.849Z,0
2018-05-05T02:42:29.523Z,0
2018-05-05T02:43:29.561Z,0
2018-05-05T02:44:30.035Z,0
2018-05-05T02:45:29.281Z,0
2018-05-05T02:46:29.598Z,0
2018-05-05T02:47:30.084Z,0
2018-05-05T02:48:29.626Z,0
2018-05-05T02:49:29.780Z,0
2018-05-05T02:50:30.008Z,0
2018-05-05T02:51:29.427Z,0
2018-05-05T02:52:29.991Z,0
2018-05-05T02:53:29.425Z,0
2018-05-05T02:54:29.991Z,0
2018-05-05T02:55:30.030Z,0
2018-05-05T02:56:29.728Z,0
2018-05-05T02:57:30.206Z,0
2018-05-05T02:58:30.135Z,0
2018-05-05T02:59:30.106Z,0
2018-05-05T03:00:30.125Z,0
2018-05-05T03:01:29.572Z,0
2018-05-05T03:02:30.150Z,0
2018-05-05T03:03:30.212Z,0
2018-05-05T03:04:29.910Z,0
2018-05-05T03:05:29.639Z,0
2018-05-05T03:06:30.251Z,0
2018-05-05T03:07:29.949Z,0
2018-05-05T03:08:30.262Z,0
2018-05-05T03:09:30.388Z,0
2018-05-05T03:10:29.733Z,0
2018-05-05T03:11:30.648Z,0
2018-05-05T03:12:29.757Z,0
2018-05-05T03:13:30.095Z,0
2018-05-05T03:14:30.411Z,0
2018-05-05T03:15:29.967Z,0
2018-05-05T03:16:29.840Z,0
2018-05-05T03:17:30.153Z,0
2018-05-05T03:18:30.443Z,0
2018-05-05T03:19:30.471Z,0
2018-05-05T03:20:30.205Z,0
2018-05-05T03:21:29.939Z,0
2018-05-05T03:22:30.233Z,0
2018-05-05T03:23:30.570Z,0
2018-05-05T03:24:30.254Z,0
2018-05-05T03:25:30.565Z,0
2018-05-05T03:26:30.293Z,0
2018-05-05T03:27:30.314Z,0
2018-05-05T03:28:30.349Z,0
2018-05-05T03:29:30.603Z,0
2018-05-05T03:30:30.719Z,0
2018-05-05T03:31:30.184Z,0
2018-05-05T03:32:30.690Z,0
2018-05-05T03:33:30.202Z,0
2018-05-05T03:34:30.428Z,0
2018-05-05T03:35:30.450Z,0
2018-05-05T03:36:30.733Z,0
2018-05-05T03:37:30.749Z,0
2018-05-05T03:38:30.509Z,0
2018-05-05T03:39:30.588Z,0
2018-05-05T03:40:30.286Z,0
2018-05-05T03:41:30.844Z,0
2018-05-05T03:42:30.911Z,0
2018-05-05T03:43:30.888Z,0
2018-05-05T03:44:30.603Z,0
2018-05-05T03:45:30.940Z,0
2018-05-05T03:46:30.954Z,0
2018-05-05T03:47:30.946Z,0
2018-05-05T03:48:30.393Z,0
2018-05-05T03:49:30.707Z,0
2018-05-05T03:50:30.967Z,0
2018-05-05T03:51:30.731Z,0
2018-05-05T03:52:31.041Z,0
2018-05-05T03:53:31.034Z,0
2018-05-05T03:54:30.792Z,0
2018-05-05T03:55:30.802Z,0
2018-05-05T03:56:30.805Z,0
2018-05-05T03:57:31.488Z,0
2018-05-05T03:58:31.160Z,0
2018-05-05T03:59:30.859Z,0
2018-05-05T04:00:30.606Z,0
2018-05-05T04:01:30.907Z,0
2018-05-05T04:02:31.205Z,0
2018-05-05T04:03:31.215Z,0
2018-05-05T04:04:30.946Z,0
2018-05-05T04:05:31.013Z,0
2018-05-05T04:06:31.006Z,0
2018-05-05T04:07:31.286Z,0
2018-05-05T04:08:31.317Z,0
2018-05-05T04:09:31.313Z,0
2018-05-05T04:10:31.098Z,0
2018-05-05T04:11:31.114Z,0
2018-05-05T04:12:31.103Z,0
2018-05-05T04:13:31.106Z,0
2018-05-05T04:14:31.127Z,0
2018-05-05T04:15:30.862Z,0
2018-05-05T04:16:31.440Z,0
2018-05-05T04:17:31.491Z,0
2018-05-05T04:18:31.487Z,0
2018-05-05T04:19:31.255Z,0
2018-05-05T04:20:31.531Z,0
2018-05-05T04:21:31.266Z,0
2018-05-05T04:22:31.003Z,0
2018-05-05T04:23:31.677Z,0
2018-05-05T04:24:31.029Z,0
2018-05-05T04:25:31.395Z,0
2018-05-05T04:26:31.712Z,0
2018-05-05T04:27:31.666Z,0
2018-05-05T04:28:31.398Z,0
2018-05-05T04:29:31.168Z,0
2018-05-05T04:30:31.431Z,0
2018-05-05T04:31:31.167Z,0
2018-05-05T04:32:31.762Z,0
2018-05-05T04:33:31.762Z,0
2018-05-05T04:34:31.220Z,0
2018-05-05T04:35:31.772Z,0
2018-05-05T04:36:31.511Z,0
2018-05-05T04:37:31.546Z,0
2018-05-05T04:38:31.846Z,0
2018-05-05T04:39:31.857Z,0
2018-05-05T04:40:31.574Z,0
2018-05-05T04:41:31.336Z,0
2018-05-05T04:42:31.640Z,0
2018-05-05T04:43:31.905Z,0
2018-05-05T04:44:32.117Z,0
2018-05-05T04:45:31.945Z,0
2018-05-05T04:46:31.985Z,0
2018-05-05T04:47:31.975Z,0
2018-05-05T04:48:31.731Z,0
2018-05-05T04:49:31.751Z,0
2018-05-05T04:50:31.769Z,0
2018-05-05T04:51:31.948Z,0
2018-05-05T04:52:31.857Z,0
2018-05-05T04:53:32.099Z,0
2018-05-05T04:54:32.093Z,0
2018-05-05T04:55:32.104Z,0
2018-05-05T04:56:31.876Z,5
2018-05-05T04:57:31.971Z,5
2018-05-05T04:58:31.899Z,5
2018-05-05T04:59:31.634Z,5
2018-05-05T05:00:31.671Z,5
2018-05-05T05:01:31.962Z,5
2018-05-05T05:02:31.700Z,5
2018-05-05T05:03:32.286Z,5
2018-05-05T05:04:32.033Z,5
2018-05-05T05:05:31.727Z,5
2018-05-05T05:06:32.333Z,5
2018-05-05T05:07:32.323Z,5
2018-05-05T05:08:32.343Z,5
2018-05-05T05:09:31.800Z,5
2018-05-05T05:10:32.118Z,5
2018-05-05T05:11:32.148Z,5
2018-05-05T05:12:31.863Z,5
2018-05-05T05:13:31.904Z,5
2018-05-05T05:14:31.895Z,5
2018-05-05T05:15:32.198Z,5
2018-05-05T05:16:32.511Z,5
2018-05-05T05:17:32.240Z,5
2018-05-05T05:18:32.535Z,5
2018-05-05T05:19:32.288Z,5
2018-05-05T05:20:32.300Z,5
2018-05-05T05:21:32.079Z,5
2018-05-05T05:22:32.297Z,5
2018-05-05T05:23:32.625Z,5
2018-05-05T05:24:32.645Z,5
2018-05-05T05:25:32.670Z,5
2018-05-05T05:26:32.395Z,5
2018-05-05T05:27:32.725Z,5
2018-05-05T05:28:32.292Z,5
2018-05-05T05:29:32.746Z,5
2018-05-05T05:30:32.182Z,5
2018-05-05T05:31:32.173Z,5
2018-05-05T05:32:32.209Z,5
2018-05-05T05:33:32.500Z,5
2018-05-05T05:34:32.535Z,5
2018-05-05T05:35:32.255Z,5
2018-05-05T05:36:32.525Z,5
2018-05-05T05:37:32.978Z,5
2018-05-05T05:38:32.869Z,5
2018-05-05T05:39:32.956Z,5
2018-05-05T05:40:32.996Z,5
2018-05-05T05:41:32.639Z,5
2018-05-05T05:42:32.935Z,5
2018-05-05T05:43:32.980Z,5
2018-05-05T05:44:32.698Z,5
2018-05-05T05:45:32.694Z,5
2018-05-05T05:46:32.641Z,5
2018-05-05T05:47:32.757Z,5
2018-05-05T05:48:32.507Z,5
2018-05-05T05:49:32.786Z,5
2018-05-05T05:50:33.072Z,5
2018-05-05T05:51:33.091Z,5
2018-05-05T05:52:32.580Z,5
2018-05-05T05:53:33.155Z,5
2018-05-05T05:54:32.576Z,5
2018-05-05T05:55:33.206Z,5
2018-05-05T05:56:33.186Z,5
2018-05-05T05:57:32.984Z,5
2018-05-05T05:58:32.916Z,5
2018-05-05T05:59:32.946Z,5
2018-05-05T06:00:32.978Z,5
2018-05-05T06:01:32.723Z,5
2018-05-05T06:02:32.735Z,5
2018-05-05T06:03:33.141Z,5
2018-05-05T06:04:33.061Z,5
2018-05-05T06:05:33.253Z,5
2018-05-05T06:06:32.805Z,5
2018-05-05T06:07:33.364Z,5
2018-05-05T06:08:33.144Z,5
2018-05-05T06:09:33.146Z,5
2018-05-05T06:10:32.888Z,5
2018-05-05T06:11:33.144Z,5
2018-05-05T06:12:33.158Z,5
2018-05-05T06:13:33.456Z,5
2018-05-05T06:14:32.938Z,5
2018-05-05T06:15:33.232Z,5
2018-05-05T06:16:33.247Z,5
2018-05-05T06:17:33.545Z,5
2018-05-05T06:18:33.064Z,5
2018-05-05T06:19:33.276Z,5
2018-05-05T06:20:33.594Z,5
2018-05-05T06:21:33.031Z,5
2018-05-05T06:22:33.051Z,5
2018-05-05T06:23:33.396Z,5
2018-05-05T06:24:33.822Z,5
2018-05-05T06:25:33.696Z,5
2018-05-05T06:26:33.413Z,5
2018-05-05T06:27:33.217Z,5
2018-05-05T06:28:32.960Z,5
2018-05-05T06:29:33.553Z,5
2018-05-05T06:30:33.203Z,5
2018-05-05T06:31:33.797Z,5
2018-05-05T06:32:33.252Z,5
2018-05-05T06:33:33.816Z,5
2018-05-05T06:34:33.551Z,5
2018-05-05T06:35:33.598Z,5
2018-05-05T06:36:33.859Z,5
2018-05-05T06:37:33.874Z,5
2018-05-05T06:38:33.954Z,5
2018-05-05T06:39:33.643Z,5
2018-05-05T06:40:33.651Z,5
2018-05-05T06:41:33.964Z,5
2018-05-05T06:42:33.984Z,5
2018-05-05T06:43:34.273Z,5
2018-05-05T06:44:33.168Z,5
2018-05-05T06:45:33.748Z,5
2018-05-05T06:46:34.046Z,5
2018-05-05T06:47:33.799Z,5
2018-05-05T06:48:33.816Z,5
2018-05-05T06:49:33.814Z,5
2018-05-05T06:50:34.087Z,5
2018-05-05T06:51:34.114Z,5
2018-05-05T06:52:33.872Z,5
2018-05-05T06:53:34.199Z,5
2018-05-05T06:54:33.620Z,5
2018-05-05T06:55:34.195Z,5
2018-05-05T06:56:33.438Z,5
2018-05-05T06:57:33.928Z,5
2018-05-05T06:58:34.003Z,5
2018-05-05T06:59:34.278Z,5
2018-05-05T07:00:34.064Z,5
2018-05-05T07:01:34.278Z,5
2018-05-05T07:02:34.031Z,5
2018-05-05T07:03:34.073Z,5
2018-05-05T07:04:33.509Z,5
2018-05-05T07:05:33.261Z,5
2018-05-05T07:06:33.853Z,5
2018-05-05T07:07:34.164Z,5
2018-05-05T07:08:33.873Z,5
2018-05-05T07:09:34.163Z,5
2018-05-05T07:10:34.199Z,5
2018-05-05T07:11:34.193Z,5
2018-05-05T07:12:34.516Z,5
2018-05-05T07:13:33.960Z,5
2018-05-05T07:14:33.421Z,5
2018-05-05T07:15:34.185Z,5
2018-05-05T07:16:34.621Z,5
2018-05-05T07:17:34.597Z,5
2018-05-05T07:18:34.640Z,5
2018-05-05T07:19:34.652Z,5
2018-05-05T07:20:34.334Z,5
2018-05-05T07:21:33.545Z,5
2018-05-05T07:22:34.665Z,5
2018-05-05T07:23:34.426Z,5
2018-05-05T07:24:34.462Z,5
2018-05-05T07:25:34.458Z,5
2018-05-05T07:26:33.935Z,5
2018-05-05T07:27:34.747Z,5
2018-05-05T07:28:34.856Z,5
2018-05-05T07:29:34.539Z,5
2018-05-05T07:30:34.799Z,5
2018-05-05T07:31:33.991Z,5
2018-05-05T07:32:34.948Z,5
2018-05-05T07:33:34.876Z,5
2018-05-05T07:34:34.906Z,5
2018-05-05T07:35:34.661Z,5
2018-05-05T07:36:34.644Z,5
2018-05-05T07:37:34.960Z,5
2018-05-05T07:38:34.754Z,5
2018-05-05T07:39:34.717Z,5
2018-05-05T07:40:34.741Z,5
2018-05-05T07:41:34.466Z,5
2018-05-05T07:42:34.760Z,5
2018-05-05T07:43:35.113Z,5
2018-05-05T07:44:35.093Z,5
2018-05-05T07:45:35.101Z,5
2018-05-05T07:46:35.129Z,5
2018-05-05T07:47:35.132Z,5
2018-05-05T07:48:34.886Z,5
2018-05-05T07:49:35.253Z,5
2018-05-05T07:50:35.199Z,5
2018-05-05T07:51:34.932Z,5
2018-05-05T07:52:35.232Z,5
2018-05-05T07:53:35.280Z,10
2018-05-05T07:54:35.292Z,10
2018-05-05T07:55:35.294Z,10
2018-05-05T07:56:35.295Z,10
2018-05-05T07:57:35.085Z,10
2018-05-05T07:58:35.340Z,10
2018-05-05T07:59:35.323Z,10
2018-05-05T08:00:35.370Z,10
2018-05-05T08:01:35.388Z,10
2018-05-05T08:02:35.131Z,10
2018-05-05T08:03:35.218Z,10
2018-05-05T08:04:35.171Z,10
2018-05-05T08:05:35.186Z,10
2018-05-05T08:06:35.223Z,10
2018-05-05T08:07:35.239Z,10
2018-05-05T08:08:35.564Z,10
2018-05-05T08:09:35.264Z,10
2018-05-05T08:10:35.028Z,10
2018-05-05T08:11:35.468Z,10
2018-05-05T08:12:35.319Z,10
2018-05-05T08:13:35.068Z,10
2018-05-05T08:14:35.651Z,10
2018-05-05T08:15:35.689Z,10
2018-05-05T08:16:35.408Z,10
2018-05-05T08:17:35.425Z,10
2018-05-05T08:18:35.450Z,10
2018-05-05T08:19:35.749Z,10
2018-05-05T08:20:35.488Z,10
2018-05-05T08:21:35.815Z,10
2018-05-05T08:22:35.244Z,10
2018-05-05T08:23:35.584Z,10
2018-05-05T08:24:35.273Z,10
2018-05-05T08:25:35.828Z,10
2018-05-05T08:26:35.900Z,10
2018-05-05T08:27:35.916Z,10
2018-05-05T08:28:36.122Z,10
2018-05-05T08:29:35.957Z,10
2018-05-05T08:30:35.975Z,10
2018-05-05T08:31:35.969Z,10
2018-05-05T08:32:35.691Z,10
2018-05-05T08:33:35.749Z,10
2018-05-05T08:34:36.057Z,10
2018-05-05T08:35:36.034Z,10
2018-05-05T08:36:35.775Z,10
2018-05-05T08:37:35.895Z,10
2018-05-05T08:38:35.262Z,10
2018-05-05T08:39:36.127Z,10
2018-05-05T08:40:35.866Z,10
2018-05-05T08:41:36.188Z,10
2018-05-05T08:42:35.354Z,10
2018-05-05T08:43:35.976Z,10
2018-05-05T08:44:35.969Z,10
2018-05-05T08:45:35.968Z,10
2018-05-05T08:46:35.996Z,10
2018-05-05T08:47:36.005Z,10
2018-05-05T08:48:36.296Z,10
2018-05-05T08:49:36.078Z,15
2018-05-05T08:50:35.787Z,15
2018-05-05T08:51:36.067Z,15
2018-05-05T08:52:36.882Z,15
2018-05-05T08:53:36.156Z,15
2018-05-05T08:54:35.848Z,15
2018-05-05T08:55:35.890Z,15
2018-05-05T08:56:36.456Z,15
2018-05-05T08:57:36.997Z,15
2018-05-05T08:58:36.512Z,15
2018-05-05T08:59:36.253Z,15
2018-05-05T09:00:35.995Z,15
2018-05-05T09:01:36.564Z,15
2018-05-05T09:02:36.626Z,15
2018-05-05T09:03:36.610Z,15
2018-05-05T09:04:36.344Z,15
2018-05-05T09:05:36.416Z,15
2018-05-05T09:06:36.674Z,15
2018-05-05T09:07:36.428Z,15
2018-05-05T09:08:36.468Z,15
2018-05-05T09:09:36.214Z,15
2018-05-05T09:10:36.779Z,15
2018-05-05T09:11:36.529Z,15
2018-05-05T09:12:36.545Z,15
2018-05-05T09:13:36.288Z,15
2018-05-05T09:14:36.890Z,15
2018-05-05T09:15:36.332Z,15
2018-05-05T09:16:36.912Z,15
2018-05-05T09:17:36.918Z,15
2018-05-05T09:18:36.619Z,15
2018-05-05T09:19:36.439Z,15
2018-05-05T09:20:36.410Z,15
2018-05-05T09:21:37.010Z,15
2018-05-05T09:22:37.039Z,15
2018-05-05T09:23:37.038Z,15
2018-05-05T09:24:37.136Z,20
2018-05-05T09:25:37.079Z,20
2018-05-05T09:26:37.091Z,20
2018-05-05T09:27:36.837Z,20
2018-05-05T09:28:36.840Z,20
2018-05-05T09:29:36.968Z,20
2018-05-05T09:30:36.924Z,20
2018-05-05T09:31:37.216Z,20
2018-05-05T09:32:36.682Z,20
2018-05-05T09:33:36.974Z,20
2018-05-05T09:34:37.371Z,20
2018-05-05T09:35:37.008Z,20
2018-05-05T09:36:37.047Z,20
2018-05-05T09:37:37.356Z,20
2018-05-05T09:38:37.101Z,20
2018-05-05T09:39:37.100Z,20
2018-05-05T09:40:37.415Z,20
2018-05-05T09:41:36.877Z,20
2018-05-05T09:42:37.598Z,20
2018-05-05T09:43:37.515Z,20
2018-05-05T09:44:37.185Z,20
2018-05-05T09:45:36.961Z,20
2018-05-05T09:46:36.974Z,20
2018-05-05T09:47:37.281Z,25
2018-05-05T09:48:37.311Z,25
2018-05-05T09:49:37.387Z,25
2018-05-05T09:50:37.647Z,25
2018-05-05T09:51:37.399Z,25
2018-05-05T09:52:37.405Z,25
2018-05-05T09:53:37.403Z,25
2018-05-05T09:54:37.766Z,25
2018-05-05T09:55:37.192Z,25
2018-05-05T09:56:37.765Z,25
2018-05-05T09:57:37.797Z,25
2018-05-05T09:58:37.793Z,25
2018-05-05T09:59:37.700Z,25
2018-05-05T10:00:37.579Z,25
2018-05-05T10:01:37.311Z,25
2018-05-05T10:02:37.614Z,25
2018-05-05T10:03:37.943Z,25
2018-05-05T10:04:38.004Z,25
2018-05-05T10:05:37.954Z,25
2018-05-05T10:06:37.734Z,25
2018-05-05T10:07:38.029Z,25
2018-05-05T10:08:38.038Z,25
2018-05-05T10:09:37.846Z,25
2018-05-05T10:10:37.522Z,25
2018-05-05T10:11:37.871Z,25
2018-05-05T10:12:37.562Z,25
2018-05-05T10:13:37.308Z,25
2018-05-05T10:14:38.203Z,25
2018-05-05T10:15:37.952Z,25
2018-05-05T10:16:38.235Z,25
2018-05-05T10:17:37.996Z,30
2018-05-05T10:18:38.005Z,30
2018-05-05T10:19:37.734Z,30
2018-05-05T10:20:37.777Z,30
2018-05-05T10:21:37.654Z,30
2018-05-05T10:22:38.400Z,30
2018-05-05T10:23:38.385Z,30
2018-05-05T10:24:38.442Z,30
2018-05-05T10:25:38.136Z,30
2018-05-05T10:26:38.212Z,30
2018-05-05T10:27:38.481Z,30
2018-05-05T10:28:38.515Z,30
2018-05-05T10:29:38.276Z,30
2018-05-05T10:30:38.276Z,30
2018-05-05T10:31:38.701Z,30
2018-05-05T10:32:38.610Z,30
2018-05-05T10:33:38.624Z,30
2018-05-05T10:34:38.359Z,30
2018-05-05T10:35:38.109Z,30
2018-05-05T10:36:38.448Z,30
2018-05-05T10:37:38.167Z,30
2018-05-05T10:38:38.218Z,35
2018-05-05T10:39:38.544Z,35
2018-05-05T10:40:38.554Z,35
2018-05-05T10:41:38.833Z,35
2018-05-05T10:42:38.836Z,35
2018-05-05T10:43:38.326Z,35
2018-05-05T10:44:39.286Z,35
2018-05-05T10:45:38.677Z,35
2018-05-05T10:46:38.955Z,30
2018-05-05T10:47:38.956Z,35
2018-05-05T10:48:38.715Z,35
2018-05-05T10:49:37.920Z,35
2018-05-05T10:50:38.488Z,35
2018-05-05T10:51:39.069Z,35
2018-05-05T10:52:38.528Z,35
2018-05-05T10:53:38.855Z,35
2018-05-05T10:54:38.591Z,35
2018-05-05T10:55:39.225Z,35
2018-05-05T10:56:38.952Z,35
2018-05-05T10:57:39.233Z,35
2018-05-05T10:58:39.246Z,35
2018-05-05T10:59:39.012Z,35
2018-05-05T11:00:38.993Z,35
2018-05-05T11:01:39.653Z,35
2018-05-05T11:02:39.089Z,35
2018-05-05T11:03:39.116Z,40
2018-05-05T11:04:39.471Z,40
2018-05-05T11:05:39.122Z,40
2018-05-05T11:06:39.466Z,40
2018-05-05T11:07:39.486Z,40
2018-05-05T11:08:39.063Z,40
2018-05-05T11:09:39.577Z,45
2018-05-05T11:10:39.560Z,45
2018-05-05T11:11:39.565Z,45
2018-05-05T11:12:39.659Z,40
2018-05-05T11:13:39.348Z,40
2018-05-05T11:14:38.880Z,40
2018-05-05T11:15:39.404Z,40
2018-05-05T11:16:39.704Z,40
2018-05-05T11:17:39.754Z,45
2018-05-05T11:18:39.777Z,45
2018-05-05T11:19:39.804Z,45
2018-05-05T11:20:39.839Z,45
2018-05-05T11:21:39.723Z,50
2018-05-05T11:22:39.575Z,50
2018-05-05T11:23:39.899Z,45
2018-05-05T11:24:39.339Z,45
2018-05-05T11:25:39.919Z,45
2018-05-05T11:26:39.678Z,40
2018-05-05T11:27:39.730Z,40
2018-05-05T11:28:39.904Z,40
2018-05-05T11:29:40.085Z,40
2018-05-05T11:30:39.792Z,45
2018-05-05T11:31:39.553Z,45
2018-05-05T11:32:39.874Z,45
2018-05-05T11:33:40.195Z,45
2018-05-05T11:34:40.226Z,45
2018-05-05T11:35:39.953Z,45
2018-05-05T11:36:39.949Z,45
2018-05-05T11:37:40.281Z,45
2018-05-05T11:38:40.012Z,40
2018-05-05T11:39:40.091Z,40
2018-05-05T11:40:39.777Z,40
2018-05-05T11:41:40.114Z,40
2018-05-05T11:42:40.131Z,40
2018-05-05T11:43:39.877Z,45
2018-05-05T11:44:39.905Z,45
2018-05-05T11:45:40.458Z,45
2018-05-05T11:46:40.525Z,45
2018-05-05T11:47:40.276Z,45
2018-05-05T11:48:40.016Z,45
2018-05-05T11:49:40.311Z,45
2018-05-05T11:50:40.572Z,45
2018-05-05T11:51:40.464Z,50
2018-05-05T11:52:40.702Z,50
2018-05-05T11:53:40.751Z,50
2018-05-05T11:54:40.490Z,50
2018-05-05T11:55:40.763Z,45
2018-05-05T11:56:40.536Z,45
2018-05-05T11:57:40.836Z,45
2018-05-05T11:58:40.582Z,40
2018-05-05T11:59:40.937Z,40
2018-05-05T12:00:40.673Z,40
2018-05-05T12:01:40.859Z,40
2018-05-05T12:02:40.132Z,40
2018-05-05T12:03:40.707Z,40
2018-05-05T12:04:41.056Z,45
2018-05-05T12:05:40.747Z,45
2018-05-05T12:06:41.076Z,45
2018-05-05T12:07:40.850Z,45
2018-05-05T12:08:40.637Z,45
2018-05-05T12:09:40.699Z,45
2018-05-05T12:10:41.295Z,45
2018-05-05T12:11:41.223Z,45
2018-05-05T12:12:40.977Z,45
2018-05-05T12:13:40.710Z,45
2018-05-05T12:14:41.053Z,45
2018-05-05T12:15:41.036Z,45
2018-05-05T12:16:40.499Z,45
2018-05-05T12:17:40.807Z,45
2018-05-05T12:18:41.381Z,45
2018-05-05T12:19:41.469Z,45
2018-05-05T12:20:41.483Z,45
2018-05-05T12:21:41.246Z,45
2018-05-05T12:22:41.211Z,45
2018-05-05T12:23:41.286Z,45
2018-05-05T12:24:41.296Z,45
2018-05-05T12:25:41.324Z,40
2018-05-05T12:26:41.610Z,40
2018-05-05T12:27:41.672Z,40
2018-05-05T12:28:41.694Z,40
2018-05-05T12:29:41.924Z,40
2018-05-05T12:30:41.760Z,40
2018-05-05T12:31:41.474Z,40
2018-05-05T12:32:41.513Z,40
2018-05-05T12:33:41.846Z,40
2018-05-05T12:34:41.850Z,40
2018-05-05T12:35:41.615Z,40
2018-05-05T12:36:41.638Z,45
2018-05-05T12:37:41.401Z,45
2018-05-05T12:38:41.975Z,45
2018-05-05T12:39:42.002Z,45
2018-05-05T12:40:42.007Z,45
2018-05-05T12:41:41.505Z,45
2018-05-05T12:42:42.083Z,45
2018-05-05T12:43:42.093Z,45
2018-05-05T12:44:41.849Z,45
2018-05-05T12:45:41.888Z,45
2018-05-05T12:46:41.638Z,45
2018-05-05T12:47:41.960Z,45
2018-05-05T12:48:41.975Z,45
2018-05-05T12:49:42.074Z,45
2018-05-05T12:50:42.299Z,45
2018-05-05T12:51:42.087Z,45
2018-05-05T12:52:42.367Z,45
2018-05-05T12:53:41.854Z,40
2018-05-05T12:54:42.417Z,40
2018-05-05T12:55:42.180Z,40
2018-05-05T12:56:42.235Z,45
2018-05-05T12:57:42.502Z,45
2018-05-05T12:58:42.285Z,45
2018-05-05T12:59:42.803Z,45
2018-05-05T13:00:42.600Z,45
2018-05-05T13:01:42.357Z,45
2018-05-05T13:02:42.654Z,45
2018-05-05T13:03:42.174Z,45
2018-05-05T13:04:42.438Z,45
2018-05-05T13:05:42.507Z,45
2018-05-05T13:06:42.808Z,45
2018-05-05T13:07:42.545Z,45
2018-05-05T13:08:42.594Z,45
2018-05-05T13:09:42.327Z,45
2018-05-05T13:10:42.614Z,45
2018-05-05T13:11:43.344Z,45
2018-05-05T13:12:42.679Z,45
2018-05-05T13:13:42.416Z,45
2018-05-05T13:14:42.742Z,45
2018-05-05T13:15:43.032Z,45
2018-05-05T13:16:43.079Z,45
2018-05-05T13:17:43.103Z,45
2018-05-05T13:18:42.863Z,45
2018-05-05T13:19:43.170Z,45
2018-05-05T13:20:42.927Z,45
2018-05-05T13:21:43.451Z,45
2018-05-05T13:22:43.285Z,40
2018-05-05T13:23:43.378Z,45
2018-05-05T13:24:42.757Z,45
2018-05-05T13:25:43.352Z,45
2018-05-05T13:26:43.100Z,45
2018-05-05T13:27:43.416Z,45
2018-05-05T13:28:43.455Z,45
2018-05-05T13:29:43.187Z,45
2018-05-05T13:30:43.191Z,45
2018-05-05T13:31:43.538Z,50
2018-05-05T13:32:43.567Z,50
2018-05-05T13:33:43.301Z,50
2018-05-05T13:34:43.612Z,50
2018-05-05T13:35:43.355Z,50
2018-05-05T13:36:43.699Z,50
2018-05-05T13:37:43.412Z,50
2018-05-05T13:38:43.725Z,50
2018-05-05T13:39:43.773Z,50
2018-05-05T13:40:43.829Z,50
2018-05-05T13:41:43.543Z,50
2018-05-05T13:42:43.574Z,50
2018-05-05T13:43:43.586Z,50
2018-05-05T13:44:43.396Z,55
2018-05-05T13:45:43.927Z,55
2018-05-05T13:46:43.960Z,55
2018-05-05T13:47:43.715Z,55
2018-05-05T13:48:43.492Z,55
2018-05-05T13:49:43.504Z,50
2018-05-05T13:50:43.519Z,50
2018-05-05T13:51:44.148Z,50
2018-05-05T13:52:44.156Z,50
2018-05-05T13:53:44.177Z,50
2018-05-05T13:54:43.924Z,50
2018-05-05T13:55:44.231Z,50
2018-05-05T13:56:44.267Z,50
2018-05-05T13:57:44.293Z,50
2018-05-05T13:58:44.146Z,55
2018-05-05T13:59:43.804Z,55
2018-05-05T14:00:44.411Z,55
2018-05-05T14:01:44.466Z,55
2018-05-05T14:02:44.540Z,55
2018-05-05T14:03:44.492Z,55
2018-05-05T14:04:43.697Z,60
2018-05-05T14:05:44.638Z,60
2018-05-05T14:06:44.592Z,60
2018-05-05T14:07:44.603Z,60
2018-05-05T14:08:44.375Z,60
2018-05-05T14:09:44.699Z,60
2018-05-05T14:10:44.418Z,60
2018-05-05T14:11:44.713Z,60
2018-05-05T14:12:44.207Z,60
2018-05-05T14:13:44.518Z,60
2018-05-05T14:14:44.826Z,60
2018-05-05T14:15:44.612Z,55
2018-05-05T14:16:44.880Z,55
2018-05-05T14:17:44.919Z,55
2018-05-05T14:18:44.379Z,55
2018-05-05T14:19:44.702Z,55
2018-05-05T14:20:44.799Z,60
2018-05-05T14:21:44.777Z,60
2018-05-05T14:22:44.759Z,65
2018-05-05T14:23:44.836Z,65
2018-05-05T14:24:44.833Z,70
2018-05-05T14:25:44.884Z,70
2018-05-05T14:26:44.927Z,70
2018-05-05T14:27:45.248Z,70
2018-05-05T14:28:45.303Z,70
2018-05-05T14:29:45.292Z,70
2018-05-05T14:30:44.772Z,70
2018-05-05T14:31:45.096Z,70
2018-05-05T14:32:45.392Z,70